Airfield :
LOGIN :

Register | Disclaimer

   EN    FR    IT 

 










Legend :    VFR   Marginal VFR   IFR   Intensive IFR   Very Intensive IFR
Visi :
Ceiling :
>= 8 km
>= 3000ft
5 to 8 km
1000 to 3000 ft
1500m to 5 km
500 to 1000 ft
800 to 1500m
200 to 500 ft
< 800m
< 200 ft
Symbols :   Thunderstorms  Fog  Heavy snow  Heavy precipitations  Wind > 20 kt
SIGMETs :     Misc.  Thunderstorms  Icing  Turbulence  Mountain Waves  Volcanic Ashes






- Airport Elevation : 1260 ft
- IATA code : LDE


LFBT - Tarbes / Ossun

CURRENT METAR :
  • 280530Z AUTO 27008KT 9999 OVC064 05/02 Q1024 NOSIG

EXPIRED METARs :
  • 280500Z AUTO 27005KT 9999 SCT026 OVC066 05/02 Q1024 NOSIG
  • 280430Z AUTO 25006KT 9999 SCT025 OVC066 05/02 Q1024 NOSIG
  • 280400Z AUTO 25007KT 9999 OVC021 05/03 Q1024 NOSIG
  • 280330Z AUTO 25006KT 9999 BKN019 BKN024 OVC060 05/04 Q1024 NOSIG
  • 280300Z AUTO 25007KT 9999 BKN019 OVC054 06/04 Q1024 NOSIG
  • 280230Z AUTO 24005KT 9999 BKN018 OVC054 05/04 Q1024 BECMG 30010KT
  • 280200Z AUTO 23004KT 200V270 9999 OVC054 05/04 Q1024 NOSIG
  • 280130Z AUTO 26007KT 9999 OVC056 05/04 Q1024 NOSIG
  • 280100Z AUTO 27009KT 9999 SCT014 SCT025 BKN037 05/04 Q1024 TEMPO BKN009

TAF TAF LFBT
Valid from the 28 at 00:00 until the 29 at 00:00 UTC


272300Z 2800/2824 30010KT 9999 SCT025 BKN040 OVC070
PROB40
TEMPO 2800/2802 -RA BKN009
BECMG 2806/2808 FEW020 SCT080
BECMG 2809/2811 CAVOK
BECMG 2818/2820 VRB03KT SCT060
TEMPO 2821/2824 BKN040



MET'MAP, your aeronautical weather chart ! - Copyright ORBIFLY December 2007 - Disclaimer

ORBIFLY MET'MAP TEAM :

Programming & Development : Alexandra Zaïnal
Original concept : Baudouin d'Aumeries
Technical & hardware support : Manuel Goepfert
Assistance : Marc-Olivier Méhu




SOURCES & CREDITS :

   NOAA